sensor_id;sensor_type;location;lat;lon;timestamp;pressure;altitude;pressure_sealevel;temperature;humidity
58385;BME280;44185;47.844;8.966;2023-04-10T00:00:20;96682.00;;;2.71;97.95
58385;BME280;44185;47.844;8.966;2023-04-10T00:02:45;96684.13;;;2.62;98.10
58385;BME280;44185;47.844;8.966;2023-04-10T00:05:10;96680.66;;;2.42;99.31
58385;BME280;44185;47.844;8.966;2023-04-10T00:07:37;96677.97;;;2.25;100.00
58385;BME280;44185;47.844;8.966;2023-04-10T00:10:03;96674.63;;;2.21;100.00
58385;BME280;44185;47.844;8.966;2023-04-10T00:12:29;96673.72;;;2.22;100.00
58385;BME280;44185;47.844;8.966;2023-04-10T00:14:54;96677.97;;;2.25;100.00
58385;BME280;44185;47.844;8.966;2023-04-10T00:17:20;96664.69;;;2.29;100.00
58385;BME280;44185;47.844;8.966;2023-04-10T00:19:45;96663.78;;;2.30;100.00
58385;BME280;44185;47.844;8.966;2023-04-10T00:22:10;96669.66;;;2.36;100.00
58385;BME280;44185;47.844;8.966;2023-04-10T00:24:37;96669.56;;;2.37;100.00
58385;BME280;44185;47.844;8.966;2023-04-10T00:27:03;96668.44;;;2.43;100.00
58385;BME280;44185;47.844;8.966;2023-04-10T00:29:28;96671.13;;;2.41;100.00
58385;BME280;44185;47.844;8.966;2023-04-10T00:31:54;96665.34;;;2.35;100.00
58385;BME280;44185;47.844;8.966;2023-04-10T00:34:19;96671.53;;;2.32;100.00
58385;BME280;44185;47.844;8.966;2023-04-10T00:36:45;96660.06;;;2.36;100.00
58385;BME280;44185;47.844;8.966;2023-04-10T00:39:10;96657.00;;;2.46;99.59
58385;BME280;44185;47.844;8.966;2023-04-10T00:41:37;96657.09;;;2.44;99.34
58385;BME280;44185;47.844;8.966;2023-04-10T00:44:02;96659.13;;;2.37;99.45
58385;BME280;44185;47.844;8.966;2023-04-10T00:46:28;96662.81;;;2.33;99.91
58385;BME280;44185;47.844;8.966;2023-04-10T00:48:55;96654.97;;;2.33;99.94
58385;BME280;44185;47.844;8.966;2023-04-10T00:51:21;96660.88;;;2.37;99.58
58385;BME280;44185;47.844;8.966;2023-04-10T00:53:47;96658.75;;;2.45;99.05
58385;BME280;44185;47.844;8.966;2023-04-10T00:56:13;96653.75;;;2.40;99.33
58385;BME280;44185;47.844;8.966;2023-04-10T00:58:40;96658.34;;;2.35;99.97
58385;BME280;44185;47.844;8.966;2023-04-10T01:01:06;96652.41;;;2.31;99.86
58385;BME280;44185;47.844;8.966;2023-04-10T01:03:31;96648.38;;;2.24;100.00
58385;BME280;44185;47.844;8.966;2023-04-10T01:06:02;96645.00;;;2.22;100.00
58385;BME280;44185;47.844;8.966;2023-04-10T01:08:35;96651.13;;;2.21;100.00
58385;BME280;44185;47.844;8.966;2023-04-10T01:11:07;96645.78;;;2.24;100.00
58385;BME280;44185;47.844;8.966;2023-04-10T01:13:38;96645.78;;;2.24;99.90
58385;BME280;44185;47.844;8.966;2023-04-10T01:16:11;96644.44;;;2.15;100.00
58385;BME280;44185;47.844;8.966;2023-04-10T01:18:43;96640.28;;;2.11;100.00
58385;BME280;44185;47.844;8.966;2023-04-10T01:21:12;96642.03;;;2.10;100.00
58385;BME280;44185;47.844;8.966;2023-04-10T01:23:53;96640.88;;;1.97;100.00
58385;BME280;44185;47.844;8.966;2023-04-10T01:26:38;96639.84;;;2.01;100.00
58385;BME280;44185;47.844;8.966;2023-04-10T01:29:08;96641.59;;;2.00;100.00
58385;BME280;44185;47.844;8.966;2023-04-10T01:31:38;96640.63;;;2.03;100.00
58385;BME280;44185;47.844;8.966;2023-04-10T01:34:08;96642.66;;;1.96;100.00
58385;BME280;44185;47.844;8.966;2023-04-10T01:36:39;96638.34;;;1.95;100.00
58385;BME280;44185;47.844;8.966;2023-04-10T01:39:05;96640.97;;;1.95;100.00
58385;BME280;44185;47.844;8.966;2023-04-10T01:41:32;96637.25;;;2.01;100.00
58385;BME280;44185;47.844;8.966;2023-04-10T01:44:00;96637.28;;;1.99;100.00
58385;BME280;44185;47.844;8.966;2023-04-10T01:46:28;96644.78;;;1.88;100.00
58385;BME280;44185;47.844;8.966;2023-04-10T01:48:55;96640.38;;;1.88;100.00
58385;BME280;44185;47.844;8.966;2023-04-10T01:51:21;96637.06;;;1.85;99.84
58385;BME280;44185;47.844;8.966;2023-04-10T01:53:47;96635.66;;;1.77;100.00
58385;BME280;44185;47.844;8.966;2023-04-10T01:56:13;96631.53;;;1.72;100.00
58385;BME280;44185;47.844;8.966;2023-04-10T01:58:40;96628.66;;;1.78;100.00
58385;BME280;44185;47.844;8.966;2023-04-10T02:01:05;96633.81;;;1.80;100.00
58385;BME280;44185;47.844;8.966;2023-04-10T02:03:32;96633.09;;;1.76;100.00
58385;BME280;44185;47.844;8.966;2023-04-10T02:06:07;96634.72;;;1.78;100.00
58385;BME280;44185;47.844;8.966;2023-04-10T02:08:38;96627.09;;;1.74;100.00
58385;BME280;44185;47.844;8.966;2023-04-10T02:11:11;96622.78;;;1.73;100.00
58385;BME280;44185;47.844;8.966;2023-04-10T02:13:38;96631.47;;;1.73;100.00
58385;BME280;44185;47.844;8.966;2023-04-10T02:16:06;96629.50;;;1.78;100.00
58385;BME280;44185;47.844;8.966;2023-04-10T02:18:34;96631.13;;;1.81;99.86
58385;BME280;44185;47.844;8.966;2023-04-10T02:21:01;96627.88;;;1.76;100.00
58385;BME280;44185;47.844;8.966;2023-04-10T02:23:27;96622.22;;;1.66;100.00
58385;BME280;44185;47.844;8.966;2023-04-10T02:25:52;96626.53;;;1.67;100.00
58385;BME280;44185;47.844;8.966;2023-04-10T02:28:18;96621.88;;;1.74;99.45
58385;BME280;44185;47.844;8.966;2023-04-10T02:30:43;96626.97;;;1.77;99.48
58385;BME280;44185;47.844;8.966;2023-04-10T02:33:08;96617.56;;;1.73;99.46
58385;BME280;44185;47.844;8.966;2023-04-10T02:35:35;96620.00;;;1.77;98.76
58385;BME280;44185;47.844;8.966;2023-04-10T02:38:01;96614.97;;;1.73;98.76
58385;BME280;44185;47.844;8.966;2023-04-10T02:40:26;96615.91;;;1.72;98.78
58385;BME280;44185;47.844;8.966;2023-04-10T02:42:52;96609.56;;;1.77;98.49
58385;BME280;44185;47.844;8.966;2023-04-10T02:45:17;96611.22;;;1.78;98.22
58385;BME280;44185;47.844;8.966;2023-04-10T02:47:42;96616.59;;;1.75;98.12
58385;BME280;44185;47.844;8.966;2023-04-10T02:50:09;96614.25;;;1.69;99.06
58385;BME280;44185;47.844;8.966;2023-04-10T02:52:36;96618.44;;;1.52;100.00
58385;BME280;44185;47.844;8.966;2023-04-10T02:55:01;96618.66;;;1.27;100.00
58385;BME280;44185;47.844;8.966;2023-04-10T02:57:27;96620.50;;;1.25;100.00
58385;BME280;44185;47.844;8.966;2023-04-10T02:59:52;96622.44;;;1.19;100.00
58385;BME280;44185;47.844;8.966;2023-04-10T03:02:18;96622.81;;;1.10;100.00
58385;BME280;44185;47.844;8.966;2023-04-10T03:04:43;96617.69;;;1.08;100.00
58385;BME280;44185;47.844;8.966;2023-04-10T03:07:08;96626.28;;;1.10;100.00
58385;BME280;44185;47.844;8.966;2023-04-10T03:09:36;96628.69;;;1.15;100.00
58385;BME280;44185;47.844;8.966;2023-04-10T03:12:01;96629.41;;;1.19;100.00
58385;BME280;44185;47.844;8.966;2023-04-10T03:14:27;96624.56;;;1.09;100.00
58385;BME280;44185;47.844;8.966;2023-04-10T03:16:52;96631.41;;;1.12;100.00
58385;BME280;44185;47.844;8.966;2023-04-10T03:19:17;96636.75;;;1.09;100.00
58385;BME280;44185;47.844;8.966;2023-04-10T03:21:44;96628.94;;;1.09;100.00
58385;BME280;44185;47.844;8.966;2023-04-10T03:24:09;96641.31;;;1.04;100.00
58385;BME280;44185;47.844;8.966;2023-04-10T03:26:36;96641.25;;;1.05;100.00
58385;BME280;44185;47.844;8.966;2023-04-10T03:29:02;96638.69;;;1.04;100.00
58385;BME280;44185;47.844;8.966;2023-04-10T03:31:28;96639.81;;;0.98;100.00
58385;BME280;44185;47.844;8.966;2023-04-10T03:33:53;96638.50;;;0.65;100.00
58385;BME280;44185;47.844;8.966;2023-04-10T03:36:19;96644.22;;;0.28;100.00
58385;BME280;44185;47.844;8.966;2023-04-10T03:38:44;96637.50;;;0.22;100.00
58385;BME280;44185;47.844;8.966;2023-04-10T03:41:10;96638.16;;;0.28;100.00
58385;BME280;44185;47.844;8.966;2023-04-10T03:43:36;96630.72;;;0.41;100.00
58385;BME280;44185;47.844;8.966;2023-04-10T03:46:02;96626.25;;;0.44;100.00
58385;BME280;44185;47.844;8.966;2023-04-10T03:48:27;96624.88;;;0.58;100.00
58385;BME280;44185;47.844;8.966;2023-04-10T03:50:53;96626.00;;;0.51;100.00
58385;BME280;44185;47.844;8.966;2023-04-10T03:53:19;96630.09;;;0.58;100.00
58385;BME280;44185;47.844;8.966;2023-04-10T03:55:44;96631.84;;;0.58;100.00
58385;BME280;44185;47.844;8.966;2023-04-10T03:58:10;96628.31;;;0.59;100.00
58385;BME280;44185;47.844;8.966;2023-04-10T04:00:37;96625.13;;;0.52;100.00
58385;BME280;44185;47.844;8.966;2023-04-10T04:03:02;96622.31;;;0.57;100.00
58385;BME280;44185;47.844;8.966;2023-04-10T04:05:28;96628.75;;;0.48;100.00
58385;BME280;44185;47.844;8.966;2023-04-10T04:07:53;96622.81;;;0.44;100.00
58385;BME280;44185;47.844;8.966;2023-04-10T04:10:19;96616.53;;;0.50;100.00
58385;BME280;44185;47.844;8.966;2023-04-10T04:12:44;96618.09;;;0.31;100.00
58385;BME280;44185;47.844;8.966;2023-04-10T04:15:10;96617.34;;;0.28;100.00
58385;BME280;44185;47.844;8.966;2023-04-10T04:17:36;96617.44;;;0.02;100.00
58385;BME280;44185;47.844;8.966;2023-04-10T04:20:02;96619.25;;;0.00;100.00
58385;BME280;44185;47.844;8.966;2023-04-10T04:22:28;96619.84;;;0.07;100.00
58385;BME280;44185;47.844;8.966;2023-04-10T04:24:53;96617.31;;;0.05;100.00
58385;BME280;44185;47.844;8.966;2023-04-10T04:27:19;96623.22;;;0.10;100.00
58385;BME280;44185;47.844;8.966;2023-04-10T04:29:44;96614.47;;;0.12;100.00
58385;BME280;44185;47.844;8.966;2023-04-10T04:32:10;96619.25;;;0.00;100.00
58385;BME280;44185;47.844;8.966;2023-04-10T04:34:36;96620.16;;;-0.01;100.00
58385;BME280;44185;47.844;8.966;2023-04-10T04:37:02;96620.75;;;0.06;100.00
58385;BME280;44185;47.844;8.966;2023-04-10T04:39:27;96620.81;;;0.04;100.00
58385;BME280;44185;47.844;8.966;2023-04-10T04:41:53;96633.84;;;0.04;100.00
58385;BME280;44185;47.844;8.966;2023-04-10T04:44:19;96626.53;;;-0.10;100.00
58385;BME280;44185;47.844;8.966;2023-04-10T04:46:44;96628.00;;;-0.27;100.00
58385;BME280;44185;47.844;8.966;2023-04-10T04:49:10;96628.03;;;-0.28;100.00
58385;BME280;44185;47.844;8.966;2023-04-10T04:51:36;96637.28;;;-0.19;100.00
58385;BME280;44185;47.844;8.966;2023-04-10T04:54:02;96637.69;;;-0.06;100.00
58385;BME280;44185;47.844;8.966;2023-04-10T04:56:27;96636.25;;;-0.15;100.00
58385;BME280;44185;47.844;8.966;2023-04-10T04:58:53;96633.72;;;-0.17;100.00
58385;BME280;44185;47.844;8.966;2023-04-10T05:01:19;96639.16;;;0.01;100.00
58385;BME280;44185;47.844;8.966;2023-04-10T05:03:44;96638.00;;;0.08;100.00
58385;BME280;44185;47.844;8.966;2023-04-10T05:06:10;96633.38;;;0.17;100.00
58385;BME280;44185;47.844;8.966;2023-04-10T05:08:36;96633.75;;;0.06;100.00
58385;BME280;44185;47.844;8.966;2023-04-10T05:11:02;96644.34;;;0.01;100.00
58385;BME280;44185;47.844;8.966;2023-04-10T05:13:27;96641.72;;;0.03;100.00
58385;BME280;44185;47.844;8.966;2023-04-10T05:15:53;96630.28;;;0.07;100.00
58385;BME280;44185;47.844;8.966;2023-04-10T05:18:19;96641.84;;;0.22;100.00
58385;BME280;44185;47.844;8.966;2023-04-10T05:20:45;96639.91;;;0.27;100.00
58385;BME280;44185;47.844;8.966;2023-04-10T05:23:10;96640.56;;;0.34;100.00
58385;BME280;44185;47.844;8.966;2023-04-10T05:25:37;96649.25;;;0.33;100.00
58385;BME280;44185;47.844;8.966;2023-04-10T05:28:03;96652.53;;;0.38;100.00
58385;BME280;44185;47.844;8.966;2023-04-10T05:30:28;96647.09;;;0.44;100.00
58385;BME280;44185;47.844;8.966;2023-04-10T05:32:53;96647.09;;;0.44;100.00
58385;BME280;44185;47.844;8.966;2023-04-10T05:35:19;96652.19;;;0.48;100.00
58385;BME280;44185;47.844;8.966;2023-04-10T05:37:44;96653.28;;;0.64;100.00
58385;BME280;44185;47.844;8.966;2023-04-10T05:40:10;96656.91;;;0.83;100.00
58385;BME280;44185;47.844;8.966;2023-04-10T05:42:37;96656.34;;;0.97;100.00
58385;BME280;44185;47.844;8.966;2023-04-10T05:45:03;96651.13;;;1.19;100.00
58385;BME280;44185;47.844;8.966;2023-04-10T05:47:28;96664.19;;;1.40;100.00
58385;BME280;44185;47.844;8.966;2023-04-10T05:49:56;96659.28;;;1.53;100.00
58385;BME280;44185;47.844;8.966;2023-04-10T05:52:21;96665.47;;;1.72;100.00
58385;BME280;44185;47.844;8.966;2023-04-10T05:54:47;96663.09;;;1.86;100.00
58385;BME280;44185;47.844;8.966;2023-04-10T05:57:12;96664.25;;;2.00;100.00
58385;BME280;44185;47.844;8.966;2023-04-10T05:59:40;96665.91;;;2.22;100.00
58385;BME280;44185;47.844;8.966;2023-04-10T06:02:05;96670.06;;;2.46;100.00
58385;BME280;44185;47.844;8.966;2023-04-10T06:04:31;96668.84;;;2.72;100.00
58385;BME280;44185;47.844;8.966;2023-04-10T06:06:56;96669.50;;;2.95;99.04
58385;BME280;44185;47.844;8.966;2023-04-10T06:09:21;96678.22;;;3.14;96.47
58385;BME280;44185;47.844;8.966;2023-04-10T06:11:47;96676.13;;;3.03;93.95
58385;BME280;44185;47.844;8.966;2023-04-10T06:14:12;96676.06;;;3.04;92.86
58385;BME280;44185;47.844;8.966;2023-04-10T06:16:40;96678.44;;;2.91;92.97
58385;BME280;44185;47.844;8.966;2023-04-10T06:19:05;96673.75;;;2.98;95.92
58385;BME280;44185;47.844;8.966;2023-04-10T06:21:31;96678.91;;;2.99;96.29
58385;BME280;44185;47.844;8.966;2023-04-10T06:23:56;96675.69;;;3.12;94.21
58385;BME280;44185;47.844;8.966;2023-04-10T06:26:22;96673.25;;;3.44;93.92
58385;BME280;44185;47.844;8.966;2023-04-10T06:28:48;96665.16;;;3.67;91.56
58385;BME280;44185;47.844;8.966;2023-04-10T06:31:13;96667.78;;;3.85;90.80
58385;BME280;44185;47.844;8.966;2023-04-10T06:33:40;96671.09;;;4.05;90.14
58385;BME280;44185;47.844;8.966;2023-04-10T06:36:06;96665.16;;;4.01;90.52
58385;BME280;44185;47.844;8.966;2023-04-10T06:38:32;96662.78;;;3.96;90.80
58385;BME280;44185;47.844;8.966;2023-04-10T06:40:57;96666.88;;;4.02;90.80
58385;BME280;44185;47.844;8.966;2023-04-10T06:43:23;96658.16;;;4.02;90.25
58385;BME280;44185;47.844;8.966;2023-04-10T06:45:48;96660.63;;;4.05;90.20
58385;BME280;44185;47.844;8.966;2023-04-10T06:48:13;96662.50;;;4.03;90.60
58385;BME280;44185;47.844;8.966;2023-04-10T06:50:40;96660.06;;;4.16;90.45
58385;BME280;44185;47.844;8.966;2023-04-10T06:53:06;96663.38;;;4.36;88.57
58385;BME280;44185;47.844;8.966;2023-04-10T06:55:31;96660.16;;;4.47;87.27
58385;BME280;44185;47.844;8.966;2023-04-10T06:57:56;96660.88;;;4.50;86.42
58385;BME280;44185;47.844;8.966;2023-04-10T07:00:22;96651.72;;;4.58;85.51
58385;BME280;44185;47.844;8.966;2023-04-10T07:02:48;96654.44;;;4.72;85.80
58385;BME280;44185;47.844;8.966;2023-04-10T07:05:14;96648.41;;;4.86;84.27
58385;BME280;44185;47.844;8.966;2023-04-10T07:07:41;96654.50;;;4.87;82.75
58385;BME280;44185;47.844;8.966;2023-04-10T07:10:07;96653.88;;;5.14;82.36
58385;BME280;44185;47.844;8.966;2023-04-10T07:12:33;96647.56;;;5.33;82.62
58385;BME280;44185;47.844;8.966;2023-04-10T07:14:59;96650.03;;;5.36;80.13
58385;BME280;44185;47.844;8.966;2023-04-10T07:17:24;96653.53;;;5.66;80.41
58385;BME280;44185;47.844;8.966;2023-04-10T07:19:50;96648.09;;;5.69;78.82
58385;BME280;44185;47.844;8.966;2023-04-10T07:22:15;96653.28;;;6.00;78.54
58385;BME280;44185;47.844;8.966;2023-04-10T07:24:42;96653.22;;;6.16;76.55
58385;BME280;44185;47.844;8.966;2023-04-10T07:27:07;96652.94;;;6.36;74.78
58385;BME280;44185;47.844;8.966;2023-04-10T07:29:33;96651.66;;;6.56;74.64
58385;BME280;44185;47.844;8.966;2023-04-10T07:31:59;96644.25;;;6.63;73.92
58385;BME280;44185;47.844;8.966;2023-04-10T07:34:24;96647.69;;;6.78;73.29
58385;BME280;44185;47.844;8.966;2023-04-10T07:36:50;96652.50;;;6.99;72.92
58385;BME280;44185;47.844;8.966;2023-04-10T07:39:16;96651.44;;;7.29;70.42
58385;BME280;44185;47.844;8.966;2023-04-10T07:41:42;96650.75;;;7.53;70.42
58385;BME280;44185;47.844;8.966;2023-04-10T07:44:09;96651.53;;;7.95;69.21
58385;BME280;44185;47.844;8.966;2023-04-10T07:46:34;96648.13;;;8.19;68.95
58385;BME280;44185;47.844;8.966;2023-04-10T07:49:00;96646.03;;;8.24;68.61
58385;BME280;44185;47.844;8.966;2023-04-10T07:51:25;96639.53;;;8.54;68.49
58385;BME280;44185;47.844;8.966;2023-04-10T07:53:51;96643.75;;;8.70;67.00
58385;BME280;44185;47.844;8.966;2023-04-10T07:56:17;96642.00;;;8.82;65.39
58385;BME280;44185;47.844;8.966;2023-04-10T07:58:44;96644.59;;;8.44;66.38
58385;BME280;44185;47.844;8.966;2023-04-10T08:01:09;96644.38;;;8.48;65.22
58385;BME280;44185;47.844;8.966;2023-04-10T08:03:37;96649.28;;;8.28;68.35
58385;BME280;44185;47.844;8.966;2023-04-10T08:06:03;96655.84;;;8.09;66.81
58385;BME280;44185;47.844;8.966;2023-04-10T08:08:28;96655.91;;;8.33;67.17
58385;BME280;44185;47.844;8.966;2023-04-10T08:10:54;96655.06;;;8.97;67.34
58385;BME280;44185;47.844;8.966;2023-04-10T08:13:19;96655.59;;;9.14;64.62
58385;BME280;44185;47.844;8.966;2023-04-10T08:15:46;96651.88;;;8.67;63.74
58385;BME280;44185;47.844;8.966;2023-04-10T08:18:11;96657.59;;;8.61;66.70
58385;BME280;44185;47.844;8.966;2023-04-10T08:20:37;96656.53;;;8.50;65.90
58385;BME280;44185;47.844;8.966;2023-04-10T08:23:03;96658.31;;;8.50;67.30
58385;BME280;44185;47.844;8.966;2023-04-10T08:25:28;96658.19;;;8.77;66.45
58385;BME280;44185;47.844;8.966;2023-04-10T08:27:54;96655.28;;;8.30;68.38
58385;BME280;44185;47.844;8.966;2023-04-10T08:30:19;96652.50;;;8.95;65.42
58385;BME280;44185;47.844;8.966;2023-04-10T08:32:46;96647.59;;;9.27;64.25
58385;BME280;44185;47.844;8.966;2023-04-10T08:35:11;96642.06;;;9.54;62.87
58385;BME280;44185;47.844;8.966;2023-04-10T08:37:37;96642.91;;;9.55;63.36
58385;BME280;44185;47.844;8.966;2023-04-10T08:40:03;96644.16;;;9.38;64.17
58385;BME280;44185;47.844;8.966;2023-04-10T08:42:29;96638.72;;;9.64;62.53
58385;BME280;44185;47.844;8.966;2023-04-10T08:44:54;96644.47;;;9.21;63.42
58385;BME280;44185;47.844;8.966;2023-04-10T08:47:20;96639.66;;;9.15;66.05
58385;BME280;44185;47.844;8.966;2023-04-10T08:49:53;96639.56;;;8.79;65.62
58385;BME280;44185;47.844;8.966;2023-04-10T08:52:21;96641.50;;;8.77;67.30
58385;BME280;44185;47.844;8.966;2023-04-10T08:54:50;96634.31;;;9.04;65.90
58385;BME280;44185;47.844;8.966;2023-04-10T08:57:18;96637.00;;;8.90;67.80
58385;BME280;44185;47.844;8.966;2023-04-10T08:59:44;96635.16;;;9.04;67.38
58385;BME280;44185;47.844;8.966;2023-04-10T09:02:10;96632.25;;;9.20;68.50
58385;BME280;44185;47.844;8.966;2023-04-10T09:04:35;96635.16;;;9.29;67.40
58385;BME280;44185;47.844;8.966;2023-04-10T09:07:02;96635.22;;;8.91;67.54
58385;BME280;44185;47.844;8.966;2023-04-10T09:09:28;96643.03;;;9.17;66.08
58385;BME280;44185;47.844;8.966;2023-04-10T09:12:00;96644.44;;;9.46;68.28
58385;BME280;44185;47.844;8.966;2023-04-10T09:14:27;96638.88;;;9.74;65.82
58385;BME280;44185;47.844;8.966;2023-04-10T09:17:09;96636.00;;;9.88;64.98
58385;BME280;44185;47.844;8.966;2023-04-10T09:19:35;96633.84;;;9.94;64.03
58385;BME280;44185;47.844;8.966;2023-04-10T09:22:00;96636.03;;;9.16;65.30
58385;BME280;44185;47.844;8.966;2023-04-10T09:24:27;96636.91;;;9.64;65.23
58385;BME280;44185;47.844;8.966;2023-04-10T09:26:53;96632.16;;;9.81;64.41
58385;BME280;44185;47.844;8.966;2023-04-10T09:29:19;96621.34;;;9.96;65.59
58385;BME280;44185;47.844;8.966;2023-04-10T09:31:44;96627.66;;;9.59;63.76
58385;BME280;44185;47.844;8.966;2023-04-10T09:34:13;96625.53;;;9.75;65.00
58385;BME280;44185;47.844;8.966;2023-04-10T09:36:39;96616.66;;;9.76;63.96
58385;BME280;44185;47.844;8.966;2023-04-10T09:39:04;96618.47;;;9.99;62.38
58385;BME280;44185;47.844;8.966;2023-04-10T09:41:31;96608.63;;;10.24;67.12
58385;BME280;44185;47.844;8.966;2023-04-10T09:44:08;96617.03;;;10.52;65.27
58385;BME280;44185;47.844;8.966;2023-04-10T09:46:34;96607.63;;;10.71;61.94
58385;BME280;44185;47.844;8.966;2023-04-10T09:49:00;96606.88;;;10.81;61.25
58385;BME280;44185;47.844;8.966;2023-04-10T09:51:29;96600.38;;;10.85;62.27
58385;BME280;44185;47.844;8.966;2023-04-10T09:53:55;96601.69;;;10.90;62.98
58385;BME280;44185;47.844;8.966;2023-04-10T09:56:21;96598.25;;;11.11;61.04
58385;BME280;44185;47.844;8.966;2023-04-10T09:58:48;96589.97;;;11.26;58.12
58385;BME280;44185;47.844;8.966;2023-04-10T10:01:14;96584.66;;;11.26;52.06
58385;BME280;44185;47.844;8.966;2023-04-10T10:03:41;96587.72;;;11.43;53.93
58385;BME280;44185;47.844;8.966;2023-04-10T10:06:06;96579.00;;;11.84;53.92
58385;BME280;44185;47.844;8.966;2023-04-10T10:08:33;96579.38;;;11.69;47.78
58385;BME280;44185;47.844;8.966;2023-04-10T10:11:01;96573.97;;;11.28;48.37
58385;BME280;44185;47.844;8.966;2023-04-10T10:13:33;96577.25;;;11.41;46.20
58385;BME280;44185;47.844;8.966;2023-04-10T10:16:02;96570.38;;;11.39;47.58
58385;BME280;44185;47.844;8.966;2023-04-10T10:18:33;96563.47;;;11.48;46.93
58385;BME280;44185;47.844;8.966;2023-04-10T10:21:03;96555.50;;;11.69;45.04
58385;BME280;44185;47.844;8.966;2023-04-10T10:23:30;96564.50;;;11.78;41.44
58385;BME280;44185;47.844;8.966;2023-04-10T10:25:57;96550.88;;;11.93;42.09
58385;BME280;44185;47.844;8.966;2023-04-10T10:28:24;96555.19;;;12.15;43.76
58385;BME280;44185;47.844;8.966;2023-04-10T10:30:51;96546.72;;;12.31;43.66
58385;BME280;44185;47.844;8.966;2023-04-10T10:33:18;96541.72;;;12.58;44.13
58385;BME280;44185;47.844;8.966;2023-04-10T10:35:45;96537.53;;;12.55;44.47
58385;BME280;44185;47.844;8.966;2023-04-10T10:38:11;96537.34;;;12.37;45.67
58385;BME280;44185;47.844;8.966;2023-04-10T10:40:41;96543.06;;;12.22;43.53
58385;BME280;44185;47.844;8.966;2023-04-10T10:43:14;96542.13;;;12.53;43.55
58385;BME280;44185;47.844;8.966;2023-04-10T10:45:59;96537.84;;;12.72;45.58
58385;BME280;44185;47.844;8.966;2023-04-10T10:48:28;96531.56;;;12.73;45.08
58385;BME280;44185;47.844;8.966;2023-04-10T10:50:55;96526.81;;;12.87;46.60
58385;BME280;44185;47.844;8.966;2023-04-10T10:53:30;96519.94;;;13.14;43.52
58385;BME280;44185;47.844;8.966;2023-04-10T10:55:56;96518.09;;;13.34;45.53
58385;BME280;44185;47.844;8.966;2023-04-10T10:58:44;96514.00;;;13.60;44.15
58385;BME280;44185;47.844;8.966;2023-04-10T11:01:10;96510.53;;;13.30;44.33
58385;BME280;44185;47.844;8.966;2023-04-10T11:03:37;96501.22;;;13.06;44.96
58385;BME280;44185;47.844;8.966;2023-04-10T11:06:05;96494.09;;;12.86;43.88
58385;BME280;44185;47.844;8.966;2023-04-10T11:08:42;96505.06;;;13.41;45.37
58385;BME280;44185;47.844;8.966;2023-04-10T11:11:09;96496.34;;;13.69;45.56
58385;BME280;44185;47.844;8.966;2023-04-10T11:13:36;96493.19;;;13.45;44.32
58385;BME280;44185;47.844;8.966;2023-04-10T11:16:03;96494.13;;;13.54;39.04
58385;BME280;44185;47.844;8.966;2023-04-10T11:19:01;96492.63;;;13.42;37.61
58385;BME280;44185;47.844;8.966;2023-04-10T11:21:27;96490.66;;;13.44;41.57
58385;BME280;44185;47.844;8.966;2023-04-10T11:24:02;96489.38;;;13.48;41.35
58385;BME280;44185;47.844;8.966;2023-04-10T11:26:38;96492.44;;;13.63;41.57
58385;BME280;44185;47.844;8.966;2023-04-10T11:29:05;96489.56;;;13.85;40.43
58385;BME280;44185;47.844;8.966;2023-04-10T11:31:31;96486.69;;;13.96;38.33
58385;BME280;44185;47.844;8.966;2023-04-10T11:34:01;96483.19;;;14.24;40.55
58385;BME280;44185;47.844;8.966;2023-04-10T11:36:28;96487.69;;;14.42;37.39
58385;BME280;44185;47.844;8.966;2023-04-10T11:38:57;96482.44;;;14.32;42.97
58385;BME280;44185;47.844;8.966;2023-04-10T11:41:27;96486.66;;;14.53;41.92
58385;BME280;44185;47.844;8.966;2023-04-10T11:43:52;96470.66;;;15.08;44.68
58385;BME280;44185;47.844;8.966;2023-04-10T11:46:19;96477.56;;;15.19;42.19
58385;BME280;44185;47.844;8.966;2023-04-10T11:48:44;96482.34;;;14.88;43.26
58385;BME280;44185;47.844;8.966;2023-04-10T11:51:13;96476.00;;;14.89;43.08
58385;BME280;44185;47.844;8.966;2023-04-10T11:53:39;96472.69;;;15.14;39.96
58385;BME280;44185;47.844;8.966;2023-04-10T11:56:14;96468.00;;;14.89;41.13
58385;BME280;44185;47.844;8.966;2023-04-10T11:58:39;96470.44;;;15.01;39.20
58385;BME280;44185;47.844;8.966;2023-04-10T12:01:05;96465.63;;;15.23;45.66
58385;BME280;44185;47.844;8.966;2023-04-10T12:03:35;96466.22;;;15.17;41.71
58385;BME280;44185;47.844;8.966;2023-04-10T12:06:00;96471.13;;;15.56;39.78
58385;BME280;44185;47.844;8.966;2023-04-10T12:08:31;96458.59;;;15.49;39.62
58385;BME280;44185;47.844;8.966;2023-04-10T12:10:57;96469.13;;;15.59;37.64
58385;BME280;44185;47.844;8.966;2023-04-10T12:13:26;96465.22;;;15.71;39.96
58385;BME280;44185;47.844;8.966;2023-04-10T12:15:51;96457.72;;;16.10;37.65
58385;BME280;44185;47.844;8.966;2023-04-10T12:18:17;96453.31;;;16.00;34.24
58385;BME280;44185;47.844;8.966;2023-04-10T12:20:43;96450.22;;;15.43;35.23
58385;BME280;44185;47.844;8.966;2023-04-10T12:23:09;96453.16;;;15.32;36.18
58385;BME280;44185;47.844;8.966;2023-04-10T12:25:36;96446.16;;;15.31;37.22
58385;BME280;44185;47.844;8.966;2023-04-10T12:28:02;96444.09;;;15.51;36.82
58385;BME280;44185;47.844;8.966;2023-04-10T12:30:27;96441.13;;;15.98;35.45
58385;BME280;44185;47.844;8.966;2023-04-10T12:32:53;96441.88;;;16.08;31.53
58385;BME280;44185;47.844;8.966;2023-04-10T12:35:18;96439.81;;;16.02;33.27
58385;BME280;44185;47.844;8.966;2023-04-10T12:37:48;96424.28;;;15.97;35.43
58385;BME280;44185;47.844;8.966;2023-04-10T12:40:14;96418.88;;;15.10;35.39
58385;BME280;44185;47.844;8.966;2023-04-10T12:42:41;96419.28;;;14.97;36.57
58385;BME280;44185;47.844;8.966;2023-04-10T12:45:08;96426.28;;;15.52;36.29
58385;BME280;44185;47.844;8.966;2023-04-10T12:47:43;96424.41;;;15.87;33.73
58385;BME280;44185;47.844;8.966;2023-04-10T12:50:09;96409.75;;;15.92;35.62
58385;BME280;44185;47.844;8.966;2023-04-10T12:52:37;96412.25;;;15.93;35.27
58385;BME280;44185;47.844;8.966;2023-04-10T12:55:10;96414.38;;;15.73;35.41
58385;BME280;44185;47.844;8.966;2023-04-10T12:57:36;96409.47;;;15.60;35.07
58385;BME280;44185;47.844;8.966;2023-04-10T13:00:04;96411.16;;;15.69;32.97
58385;BME280;44185;47.844;8.966;2023-04-10T13:02:30;96409.63;;;15.58;33.78